Terminal Aerodrome Forecast
Issued by NWS

Home | Current Version | Previous Version | Graphics & Text | Print | Product List | Glossary On
Versions: 1 2 3 4 5 6 7 8 9 10 11 12 13 14 15 16 17 18 19 20 21
000
FTUS43 KBIS 252141 AAB
TAFJMS
TAF AMD
KJMS 252141Z 2522/2618 02013KT P6SM SCT025 BKN050
     FM260000 12006KT P6SM VCTS SCT050CB OVC100
     FM260600 25010KT P6SM SCT030 BKN050 OVC120
     FM261000 26010KT P6SM BKN025 OVC035
     FM261600 26014KT P6SM SCT150
      AMD NOT SKED=

USA.gov is the U.S. government's official web portal to all federal, state and local government web resources and services.